createdAt,value
2023-04-01T00:03:16.047Z,7.7
2023-04-01T00:09:13.937Z,7.7
2023-04-01T00:15:06.112Z,7.7
2023-04-01T00:21:06.180Z,7.7
2023-04-01T00:26:57.930Z,7.7
2023-04-01T00:32:49.625Z,7.7
2023-04-01T00:38:25.575Z,7.6
2023-04-01T00:44:01.055Z,7.7
2023-04-01T00:49:37.555Z,7.6
2023-04-01T00:55:13.432Z,7.6
2023-04-01T01:00:49.226Z,7.7
2023-04-01T01:06:13.936Z,7.6
2023-04-01T01:12:05.989Z,7.6
2023-04-01T01:17:41.470Z,7.6
2023-04-01T01:23:31.303Z,7.6
2023-04-01T01:29:06.732Z,7.6
2023-04-01T01:34:57.852Z,7.6
2023-04-01T01:40:49.736Z,7.6
2023-04-01T01:46:40.904Z,7.6
2023-04-01T01:52:32.623Z,7.6
2023-04-01T01:58:24.750Z,7.5
2023-04-01T02:04:16.324Z,7.5
2023-04-01T02:10:07.026Z,7.5
2023-04-01T02:15:43.390Z,7.5
2023-04-01T02:21:04.490Z,7.4
2023-04-01T02:26:55.617Z,7.4
2023-04-01T02:32:47.633Z,7.4
2023-04-01T02:38:39.588Z,7.4
2023-04-01T02:44:31.493Z,7.4
2023-04-01T02:50:23.664Z,7.4
2023-04-01T02:55:45.929Z,7.3
2023-04-01T03:01:37.286Z,7.3
2023-04-01T03:07:14.980Z,7.3
2023-04-01T03:12:50.504Z,7.3
2023-04-01T03:18:50.360Z,7.2
2023-04-01T03:24:44.204Z,7.1
2023-04-01T03:30:36.009Z,7.1
2023-04-01T03:36:27.576Z,7.1
2023-04-01T03:42:03.448Z,6.9
2023-04-01T03:47:39.536Z,6.9
2023-04-01T03:53:15.385Z,6.9
2023-04-01T03:59:07.254Z,6.8
2023-04-01T04:04:59.581Z,6.8
2023-04-01T04:10:50.467Z,6.8
2023-04-01T04:16:42.897Z,6.7
2023-04-01T04:22:34.472Z,6.7
2023-04-01T04:28:25.892Z,6.7
2023-04-01T04:34:18.137Z,6.6
2023-04-01T04:40:09.754Z,6.6
2023-04-01T04:45:45.749Z,6.6
2023-04-01T04:51:38.281Z,6.6
2023-04-01T04:57:30.869Z,6.6
2023-04-01T05:03:22.546Z,6.7
2023-04-01T05:09:14.423Z,6.8
2023-04-01T05:15:08.511Z,6.9
2023-04-01T05:20:44.182Z,6.9
2023-04-01T05:26:35.604Z,7.1
2023-04-01T05:32:28.517Z,7.4
2023-04-01T05:38:04.712Z,7.9
2023-04-01T05:43:40.702Z,8.9
2023-04-01T05:49:32.155Z,10.4
2023-04-01T05:55:23.017Z,12.2
2023-04-01T06:01:26.637Z,18.3
2023-04-01T06:07:19.252Z,24.4
2023-04-01T06:13:10.234Z,26.6
2023-04-01T06:18:46.998Z,27.1
2023-04-01T06:24:23.550Z,27.1
2023-04-01T06:30:00.239Z,27.2
2023-04-01T06:35:37.688Z,27.3
2023-04-01T06:41:14.478Z,27.4
2023-04-01T06:47:06.361Z,27.3
2023-04-01T06:52:58.733Z,27.3
2023-04-01T06:58:50.401Z,27.3
2023-04-01T07:04:42.579Z,27.2
2023-04-01T07:10:19.609Z,27.2
2023-04-01T07:15:56.723Z,27.6
2023-04-01T07:21:34.544Z,27.7
2023-04-01T07:27:26.688Z,27.5
2023-04-01T07:33:19.477Z,27.6
2023-04-01T07:39:12.184Z,27.7
2023-04-01T07:45:03.945Z,27.7
2023-04-01T07:50:55.722Z,27.6
2023-04-01T07:56:32.025Z,27.5
2023-04-01T08:02:08.962Z,27.3
2023-04-01T08:07:46.866Z,27.3
2023-04-01T08:13:39.097Z,27.3
2023-04-01T08:19:30.733Z,27.3
2023-04-01T08:25:31.629Z,27.5
2023-04-01T08:31:23.823Z,27.9
2023-04-01T08:37:17.084Z,28.8
2023-04-01T08:43:08.593Z,29.7
2023-04-01T08:49:00.243Z,32.1
2023-04-01T08:54:51.580Z,34.4
2023-04-01T09:00:45.522Z,35
2023-04-01T09:06:38.283Z,35.3
2023-04-01T09:12:31.743Z,34.5
2023-04-01T09:18:24.214Z,34.1
2023-04-01T09:24:15.700Z,33.8
2023-04-01T09:30:08.021Z,33.6
2023-04-01T09:36:00.498Z,33.4
2023-04-01T09:41:52.207Z,33.3
2023-04-01T09:47:44.027Z,33.3
2023-04-01T09:53:35.849Z,33.4
2023-04-01T09:59:28.324Z,33.7
2023-04-01T10:05:20.910Z,33.9
2023-04-01T10:11:13.035Z,33.9
2023-04-01T10:17:04.433Z,34
2023-04-01T10:22:57.049Z,33.8
2023-04-01T10:28:49.007Z,33.1
2023-04-01T10:34:40.319Z,32.9
2023-04-01T10:40:31.187Z,32.6
2023-04-01T10:46:22.263Z,32.4
2023-04-01T10:52:13.654Z,32.3
2023-04-01T10:58:08.004Z,32.1
2023-04-01T11:04:11.979Z,31.9
2023-04-01T11:10:12.663Z,31.6
2023-04-01T11:16:03.654Z,31.2
2023-04-01T11:21:41.865Z,30.3
2023-04-01T11:27:44.332Z,29.9
2023-04-01T11:33:42.719Z,29.6
2023-04-01T11:39:33.163Z,29.1
2023-04-01T11:45:34.127Z,28.3
2023-04-01T11:51:10.506Z,26.8
2023-04-01T11:57:01.400Z,25
2023-04-01T12:02:53.116Z,23.5
2023-04-01T12:08:45.715Z,22.2
2023-04-01T12:14:44.589Z,21.1
2023-04-01T12:20:35.730Z,20.3
2023-04-01T12:26:29.663Z,19.8
2023-04-01T12:32:21.540Z,19.6
2023-04-01T12:38:13.224Z,19.3
2023-04-01T12:44:04.403Z,18.9
2023-04-01T12:49:55.932Z,18.4
2023-04-01T12:55:47.429Z,17.9
2023-04-01T13:01:39.824Z,17.5
2023-04-01T13:07:32.008Z,17.1
2023-04-01T13:13:26.782Z,16.8
2023-04-01T13:19:30.737Z,16.6
2023-04-01T13:25:35.840Z,17.6
2023-04-01T13:37:32.225Z,21.9
2023-04-01T13:43:36.390Z,27.9
2023-04-01T13:49:27.794Z,32.1
2023-04-01T13:55:19.016Z,31.5
2023-04-01T14:01:11.333Z,32.2
2023-04-01T14:07:08.843Z,32.9
2023-04-01T14:13:00.028Z,33.4
2023-04-01T14:18:54.116Z,33.8
2023-04-01T14:24:48.576Z,33.8
2023-04-01T14:30:24.677Z,33.4
2023-04-01T14:36:16.986Z,34
2023-04-01T14:42:15.541Z,34.1
2023-04-01T14:48:10.641Z,34.1
2023-04-01T14:54:01.615Z,33.8
2023-04-01T14:59:54.828Z,33.8
2023-04-01T15:05:47.366Z,33.1
2023-04-01T15:11:39.444Z,32.7
2023-04-01T15:17:29.988Z,32.3
2023-04-01T15:23:06.593Z,31.9
2023-04-01T15:28:58.390Z,31.4
2023-04-01T15:34:50.296Z,31.1
2023-04-01T15:40:42.288Z,30.8
2023-04-01T15:46:36.170Z,30.3
2023-04-01T15:52:28.948Z,29.8
2023-04-01T15:58:19.800Z,28.8
2023-04-01T16:04:13.009Z,26.8
2023-04-01T16:10:04.931Z,24.8
2023-04-01T16:15:55.661Z,22.8
2023-04-01T16:21:49.040Z,20.9
2023-04-01T16:27:40.615Z,19.4
2023-04-01T16:33:32.538Z,18.2
2023-04-01T16:39:24.830Z,17.1
2023-04-01T16:45:16.386Z,16.2
2023-04-01T16:51:10.245Z,15.3
2023-04-01T16:56:46.884Z,14.6
2023-04-01T17:02:39.036Z,13.8
2023-04-01T17:08:31.755Z,13.2
2023-04-01T17:14:23.312Z,12.6
2023-04-01T17:19:59.993Z,12.1
2023-04-01T17:25:52.091Z,11.6
2023-04-01T17:31:32.302Z,11.2
2023-04-01T17:37:23.577Z,10.8
2023-04-01T17:43:15.000Z,10.4
2023-04-01T17:49:06.789Z,10.1
2023-04-01T17:54:58.205Z,9.8
2023-04-01T18:01:06.970Z,9.4
2023-04-01T18:06:59.793Z,9.1
2023-04-01T18:12:35.947Z,8.9
2023-04-01T18:18:28.158Z,8.6
2023-04-01T18:24:24.413Z,8.4
2023-04-01T18:30:00.289Z,8.3
2023-04-01T18:35:52.276Z,8.1
2023-04-01T18:41:44.480Z,7.9
2023-04-01T18:47:20.922Z,7.8
2023-04-01T18:53:13.911Z,7.8
2023-04-01T18:58:50.800Z,7.6
2023-04-01T19:04:30.019Z,7.6
2023-04-01T19:10:21.785Z,7.5
2023-04-01T19:16:13.612Z,7.4
2023-04-01T19:22:05.712Z,7.4
2023-04-01T19:27:59.969Z,7.3
2023-04-01T19:33:36.120Z,7.3
2023-04-01T19:39:12.824Z,7.2
2023-04-01T19:44:49.950Z,7.1
2023-04-01T19:50:26.736Z,7.1
2023-04-01T19:56:03.046Z,7.1
2023-04-01T20:02:01.314Z,7.1
2023-04-01T20:07:54.318Z,7
2023-04-01T20:13:47.294Z,7
2023-04-01T20:19:38.844Z,6.9
2023-04-01T20:25:31.197Z,6.9
2023-04-01T20:31:22.469Z,6.9
2023-04-01T20:37:15.119Z,6.9
2023-04-01T20:43:06.907Z,6.8
2023-04-01T20:48:59.310Z,6.8
2023-04-01T20:54:35.174Z,6.8
2023-04-01T21:00:11.213Z,6.7
2023-04-01T21:06:03.568Z,6.6
2023-04-01T21:11:55.482Z,6.6
2023-04-01T21:17:48.345Z,6.5
2023-04-01T21:23:39.790Z,6.4
2023-04-01T21:29:34.110Z,6.4
2023-04-01T21:35:27.792Z,6.4
2023-04-01T21:41:19.788Z,6.3
2023-04-01T21:47:11.334Z,6.3
2023-04-01T21:53:02.691Z,6.3
2023-04-01T21:58:54.131Z,6.3
2023-04-01T22:04:54.823Z,6.3
2023-04-01T22:10:46.089Z,6.2
2023-04-01T22:16:37.926Z,6.1
2023-04-01T22:22:32.246Z,6.1
2023-04-01T22:28:24.291Z,6
2023-04-01T22:34:00.639Z,5.9
2023-04-01T22:39:52.450Z,5.8
2023-04-01T22:45:43.805Z,5.7
2023-04-01T22:51:35.241Z,5.6
2023-04-01T22:57:37.515Z,5.5
2023-04-01T23:03:14.331Z,5.4
2023-04-01T23:09:05.501Z,5.4
2023-04-01T23:14:56.240Z,5.3
2023-04-01T23:20:47.721Z,5.3
2023-04-01T23:26:39.209Z,5.3
2023-04-01T23:32:30.245Z,5.3
2023-04-01T23:38:22.168Z,5.2
2023-04-01T23:44:13.480Z,5.2
2023-04-01T23:50:05.426Z,5.2
2023-04-01T23:55:56.563Z,5.1
